Time;durP1;ratioP1;P1;durP2;ratioP2;P2;SDS_P1;SDS_P2;PMS_P1;PMS_P2;Temp;Humidity;BMP_temperature;BMP_pressure;BME280_temperature;BME280_humidity;BME280_pressure;Samples;Min_cycle;Max_cycle;Signal;HPM_P1;HPM_P2
2021/05/24 00:00:06;;;;;;;1.80;1.70;;;10.40;99.90;;;;;;5054403;28;20292;-66
2021/05/24 00:02:34;;;;;;;2.00;1.40;;;10.40;99.90;;;;;;5054652;28;20800;-66
2021/05/24 00:05:02;;;;;;;1.80;1.70;;;10.50;99.90;;;;;;5054596;28;20288;-66
2021/05/24 00:07:29;;;;;;;1.87;1.60;;;10.50;99.90;;;;;;5054572;28;20201;-65
2021/05/24 00:09:57;;;;;;;3.23;1.67;;;10.60;99.90;;;;;;5054743;28;20208;-66
2021/05/24 00:12:26;;;;;;;1.60;1.50;;;10.60;99.90;;;;;;5054449;28;20292;-67
2021/05/24 00:14:58;;;;;;;1.77;1.60;;;10.40;99.90;;;;;;5054253;28;20235;-66
2021/05/24 00:17:25;;;;;;;2.53;2.00;;;10.40;99.90;;;;;;5054679;28;20304;-66
2021/05/24 00:19:54;;;;;;;2.13;1.90;;;10.40;99.90;;;;;;5053953;28;20201;-67
2021/05/24 00:22:21;;;;;;;2.77;2.03;;;10.40;99.90;;;;;;5054603;28;20293;-67
2021/05/24 00:24:48;;;;;;;2.63;2.00;;;10.50;99.90;;;;;;5054298;28;20205;-66
2021/05/24 00:27:16;;;;;;;2.27;2.07;;;10.60;99.90;;;;;;5054300;28;20292;-66
2021/05/24 00:29:43;;;;;;;2.00;1.80;;;10.60;99.90;;;;;;5053973;28;20260;-66
2021/05/24 00:32:10;;;;;;;2.77;1.70;;;10.50;99.90;;;;;;5054123;28;20209;-66
2021/05/24 00:34:38;;;;;;;1.73;1.63;;;10.50;99.90;;;;;;5053801;28;20296;-68
2021/05/24 00:37:06;;;;;;;2.13;1.70;;;10.50;99.90;;;;;;5054334;28;20228;-67
2021/05/24 00:39:33;;;;;;;1.83;1.60;;;10.60;99.90;;;;;;5053885;28;20284;-67
2021/05/24 00:42:01;;;;;;;1.90;1.80;;;10.60;99.90;;;;;;5054192;28;20575;-67
2021/05/24 00:44:29;;;;;;;3.13;1.90;;;10.60;99.90;;;;;;5053294;28;20728;-59
2021/05/24 00:46:57;;;;;;;1.77;1.67;;;10.50;99.90;;;;;;5053802;28;20224;-60
2021/05/24 00:49:26;;;;;;;1.93;1.70;;;10.40;99.90;;;;;;5053813;28;20268;-60
2021/05/24 00:51:54;;;;;;;3.87;1.70;;;10.40;99.90;;;;;;5053633;28;20272;-60
2021/05/24 00:54:24;;;;;;;3.73;2.00;;;10.50;99.90;;;;;;5053614;28;20668;-59
2021/05/24 00:56:53;;;;;;;2.47;1.80;;;10.50;99.90;;;;;;5054146;28;20287;-60
2021/05/24 00:59:21;;;;;;;1.90;1.77;;;10.50;99.90;;;;;;5053768;28;20293;-59
2021/05/24 01:01:49;;;;;;;2.07;1.87;;;10.50;99.90;;;;;;5053648;28;20296;-59
2021/05/24 01:04:18;;;;;;;2.00;1.80;;;10.50;99.90;;;;;;5053501;28;20304;-60
2021/05/24 01:06:45;;;;;;;1.97;1.80;;;10.40;99.90;;;;;;5053259;28;20745;-59
2021/05/24 01:09:13;;;;;;;2.77;1.90;;;10.30;99.90;;;;;;5053090;28;20248;-60
2021/05/24 01:11:41;;;;;;;3.13;1.70;;;10.40;99.90;;;;;;5053178;28;20300;-59
2021/05/24 01:14:09;;;;;;;1.70;1.60;;;10.20;99.90;;;;;;5053374;28;20301;-59
2021/05/24 01:16:36;;;;;;;1.70;1.60;;;10.10;99.90;;;;;;5053435;28;20296;-60
2021/05/24 01:19:04;;;;;;;3.03;2.00;;;10.10;99.90;;;;;;5053330;28;20284;-59
2021/05/24 01:21:32;;;;;;;2.80;1.60;;;10.20;99.90;;;;;;5053457;28;20206;-62
2021/05/24 01:24:00;;;;;;;4.60;2.00;;;10.20;99.90;;;;;;5053398;28;20197;-59
2021/05/24 01:26:28;;;;;;;2.20;2.00;;;10.30;99.90;;;;;;5053088;28;20619;-60
2021/05/24 01:28:55;;;;;;;2.77;1.77;;;10.40;99.90;;;;;;5053226;28;20217;-59
2021/05/24 01:31:23;;;;;;;2.23;1.63;;;10.50;99.90;;;;;;5052844;28;20197;-60
2021/05/24 01:33:50;;;;;;;3.70;1.70;;;10.30;99.90;;;;;;5053150;28;20296;-60
2021/05/24 01:36:18;;;;;;;2.37;1.77;;;10.20;99.90;;;;;;5053124;28;20629;-60
2021/05/24 01:38:46;;;;;;;1.83;1.60;;;10.10;99.90;;;;;;5052920;28;20675;-59
2021/05/24 01:41:13;;;;;;;3.00;1.73;;;10.00;99.90;;;;;;5052947;28;20316;-59
2021/05/24 01:43:41;;;;;;;3.00;2.00;;;10.00;99.90;;;;;;5053110;28;20227;-67
2021/05/24 01:46:08;;;;;;;1.73;1.63;;;10.20;99.90;;;;;;5052807;28;20211;-67
2021/05/24 01:48:37;;;;;;;1.90;1.80;;;10.20;99.90;;;;;;5052677;28;20245;-67
2021/05/24 01:51:05;;;;;;;2.83;2.03;;;10.30;99.90;;;;;;5052613;28;20251;-66
2021/05/24 01:53:33;;;;;;;2.70;1.90;;;10.10;99.90;;;;;;5052716;28;20263;-67
2021/05/24 01:56:02;;;;;;;1.70;1.60;;;10.00;99.90;;;;;;5052336;28;20308;-67
2021/05/24 01:58:30;;;;;;;2.70;1.70;;;9.90;99.90;;;;;;5052907;28;20245;-67
2021/05/24 02:01:03;;;;;;;2.47;1.80;;;9.80;99.90;;;;;;5052280;28;20205;-66
2021/05/24 02:03:31;;;;;;;4.50;2.07;;;9.70;99.90;;;;;;5052833;28;20247;-67
2021/05/24 02:06:00;;;;;;;2.10;1.90;;;9.70;99.90;;;;;;5052424;28;20689;-67
2021/05/24 02:08:28;;;;;;;3.17;2.20;;;9.80;99.90;;;;;;5052613;28;20221;-66
2021/05/24 02:10:56;;;;;;;2.43;1.63;;;9.80;99.90;;;;;;5052642;28;20197;-67
2021/05/24 02:13:27;;;;;;;2.63;1.77;;;9.80;99.90;;;;;;5052616;28;20296;-67
2021/05/24 02:15:55;;;;;;;2.17;1.90;;;9.70;99.90;;;;;;5052635;28;20191;-68
2021/05/24 02:18:23;;;;;;;2.10;1.90;;;9.70;99.90;;;;;;5052640;28;20241;-66
2021/05/24 02:20:50;;;;;;;2.20;2.00;;;9.60;99.90;;;;;;5052621;28;20288;-67
2021/05/24 02:23:17;;;;;;;2.63;1.90;;;9.50;99.90;;;;;;5052631;28;20255;-66
2021/05/24 02:25:45;;;;;;;4.37;2.23;;;9.50;99.90;;;;;;5052317;28;20300;-66
2021/05/24 02:28:13;;;;;;;3.67;1.87;;;9.50;99.90;;;;;;5052154;28;20621;-66
2021/05/24 02:30:41;;;;;;;3.13;2.00;;;9.50;99.90;;;;;;5052194;28;20239;-67
2021/05/24 02:33:09;;;;;;;2.40;2.00;;;9.60;99.90;;;;;;5052548;28;20206;-66
2021/05/24 02:35:36;;;;;;;2.43;1.93;;;9.60;99.90;;;;;;5052309;28;20207;-65
2021/05/24 02:38:04;;;;;;;3.13;1.90;;;9.60;99.90;;;;;;5052465;28;20259;-66
2021/05/24 02:40:32;;;;;;;2.63;2.43;;;9.50;99.90;;;;;;5052423;28;20237;-66
2021/05/24 02:43:01;;;;;;;2.90;2.37;;;9.50;99.90;;;;;;5052510;28;20274;-66
2021/05/24 02:45:28;;;;;;;2.40;2.03;;;9.40;99.90;;;;;;5052133;28;20233;-66
2021/05/24 02:47:57;;;;;;;2.17;1.97;;;9.40;99.90;;;;;;5052312;28;20202;-66
2021/05/24 02:50:26;;;;;;;2.40;2.20;;;9.50;99.90;;;;;;5051911;28;20231;-67
2021/05/24 02:52:54;;;;;;;3.50;2.10;;;9.50;99.90;;;;;;5052340;28;20204;-65
2021/05/24 02:55:22;;;;;;;2.33;2.13;;;9.50;99.90;;;;;;5052249;28;20210;-66
2021/05/24 02:57:49;;;;;;;3.50;2.10;;;9.50;99.90;;;;;;5052327;28;20289;-67
2021/05/24 03:00:18;;;;;;;2.50;2.10;;;9.40;99.90;;;;;;5052017;28;20332;-67
2021/05/24 03:02:46;;;;;;;2.03;1.90;;;9.50;99.90;;;;;;5052260;28;20225;-66
2021/05/24 03:05:16;;;;;;;2.57;2.10;;;9.40;99.90;;;;;;5052157;28;20205;-68
2021/05/24 03:07:44;;;;;;;2.47;2.03;;;9.50;99.90;;;;;;5055421;28;20638;-66
2021/05/24 03:10:13;;;;;;;3.33;2.20;;;9.60;99.90;;;;;;5055619;28;20316;-66
2021/05/24 03:12:41;;;;;;;2.77;2.10;;;9.60;99.90;;;;;;5055915;28;20280;-66
2021/05/24 03:15:10;;;;;;;2.40;2.20;;;9.60;99.90;;;;;;5055755;28;20197;-67
2021/05/24 03:17:38;;;;;;;2.80;2.27;;;9.70;99.90;;;;;;5055580;28;20708;-67
2021/05/24 03:20:07;;;;;;;3.03;2.20;;;9.70;99.90;;;;;;5055324;28;20297;-67
2021/05/24 03:22:36;;;;;;;2.83;2.30;;;9.60;99.90;;;;;;5055383;28;20241;-67
2021/05/24 03:25:05;;;;;;;3.77;2.07;;;9.50;99.90;;;;;;5055420;28;20300;-67
2021/05/24 03:27:32;;;;;;;2.23;2.00;;;9.60;99.90;;;;;;5055381;28;20665;-66
2021/05/24 03:30:00;;;;;;;3.70;2.20;;;9.50;99.90;;;;;;5055298;28;20222;-67
2021/05/24 03:32:28;;;;;;;2.37;1.90;;;9.50;99.90;;;;;;5055171;28;20288;-66
2021/05/24 03:34:55;;;;;;;2.17;2.07;;;9.50;99.90;;;;;;5055154;28;20223;-66
2021/05/24 03:37:22;;;;;;;2.20;1.97;;;9.50;99.90;;;;;;5055417;28;20205;-67
2021/05/24 03:39:51;;;;;;;3.50;2.27;;;9.50;99.90;;;;;;5055005;28;20198;-67
2021/05/24 03:42:18;;;;;;;2.23;1.90;;;9.60;99.90;;;;;;5055357;28;20287;-66
2021/05/24 03:44:46;;;;;;;2.20;1.90;;;9.70;99.90;;;;;;5054749;28;20316;-67
2021/05/24 03:47:14;;;;;;;2.47;1.80;;;9.60;99.90;;;;;;5054986;28;20653;-67
2021/05/24 03:49:44;;;;;;;1.90;1.73;;;9.70;99.90;;;;;;5054927;28;20249;-67
2021/05/24 03:52:13;;;;;;;2.03;1.83;;;9.60;99.90;;;;;;5054723;28;20292;-66
2021/05/24 03:54:41;;;;;;;3.07;1.73;;;9.60;99.90;;;;;;5054811;28;20653;-65
2021/05/24 03:57:11;;;;;;;2.00;1.70;;;9.60;99.90;;;;;;5055041;28;20288;-67
2021/05/24 03:59:39;;;;;;;1.83;1.73;;;9.70;99.90;;;;;;5054831;28;20252;-67
2021/05/24 04:02:06;;;;;;;1.93;1.73;;;9.80;99.90;;;;;;5054231;28;20240;-67
2021/05/24 04:04:34;;;;;;;2.30;1.57;;;9.80;99.90;;;;;;5054712;28;20232;-65
2021/05/24 04:07:03;;;;;;;1.80;1.70;;;9.90;99.90;;;;;;5054509;28;20748;-66
2021/05/24 04:09:31;;;;;;;2.33;1.67;;;9.90;99.90;;;;;;5054671;28;20225;-67
2021/05/24 04:11:59;;;;;;;2.33;1.70;;;10.00;99.90;;;;;;5054550;28;20201;-65
2021/05/24 04:14:27;;;;;;;1.97;1.67;;;10.00;99.90;;;;;;5054506;28;20225;-67
2021/05/24 04:16:55;;;;;;;1.63;1.53;;;10.00;99.90;;;;;;5054308;28;20297;-68
2021/05/24 04:19:22;;;;;;;1.80;1.60;;;10.10;99.90;;;;;;5053704;28;20289;-66
2021/05/24 04:21:50;;;;;;;2.20;1.57;;;10.10;99.90;;;;;;5054585;28;20293;-67
2021/05/24 04:24:17;;;;;;;1.67;1.50;;;10.20;99.90;;;;;;5054268;28;20825;-66
2021/05/24 04:26:45;;;;;;;2.07;1.60;;;10.20;99.90;;;;;;5054273;28;20228;-66
2021/05/24 04:29:12;;;;;;;3.40;1.47;;;10.20;99.90;;;;;;5054104;28;20689;-67
2021/05/24 04:31:40;;;;;;;1.90;1.50;;;10.40;99.90;;;;;;5054325;28;20240;-65
2021/05/24 04:34:08;;;;;;;1.97;1.60;;;10.50;99.90;;;;;;5053983;28;20207;-67
2021/05/24 04:36:35;;;;;;;2.23;1.40;;;10.60;99.90;;;;;;5054369;28;20225;-65
2021/05/24 04:39:03;;;;;;;3.10;1.60;;;10.60;99.90;;;;;;5054063;28;20896;-66
2021/05/24 04:41:30;;;;;;;1.90;1.70;;;10.70;99.90;;;;;;5054256;28;20217;-66
2021/05/24 04:44:09;;;;;;;1.77;1.50;;;10.80;99.90;;;;;;5053749;28;20251;-66
2021/05/24 04:46:37;;;;;;;2.27;1.40;;;11.00;99.90;;;;;;5033962;28;20293;-66
2021/05/24 04:49:05;;;;;;;2.20;1.50;;;11.30;99.90;;;;;;5033912;28;20267;-67
2021/05/24 04:51:32;;;;;;;2.00;1.80;;;11.50;99.90;;;;;;5046955;28;20779;-67
2021/05/24 04:54:00;;;;;;;1.30;1.20;;;12.50;99.90;;;;;;5053940;28;20292;-67
2021/05/24 04:56:27;;;;;;;1.85;1.33;;;14.90;99.90;;;;;;5053927;28;20202;-68
2021/05/24 04:58:55;;;;;;;2.25;1.17;;;;;;;;;;5053850;28;20209;-67
2021/05/24 05:01:22;;;;;;;1.10;1.00;;;19.50;99.90;;;;;;5053568;28;20244;-66
2021/05/24 05:03:49;;;;;;;1.20;1.00;;;21.30;99.90;;;;;;5053714;28;20284;-66
2021/05/24 05:06:18;;;;;;;1.55;1.08;;;22.40;99.90;;;;;;5053456;28;20641;-66
2021/05/24 05:08:45;;;;;;;1.08;1.00;;;23.50;99.90;;;;;;5053419;28;20205;-66
2021/05/24 05:11:13;;;;;;;1.50;1.00;;;24.30;99.90;;;;;;5053318;28;20311;-66
2021/05/24 05:13:41;;;;;;;1.90;1.10;;;24.80;99.90;;;;;;5053068;28;20268;-67
2021/05/24 05:16:09;;;;;;;1.63;1.27;;;25.50;99.90;;;;;;5053206;28;20296;-66
2021/05/24 05:18:36;;;;;;;2.03;1.05;;;26.00;98.30;;;;;;5053263;28;20300;-66
2021/05/24 05:21:04;;;;;;;0.88;0.82;;;26.20;97.20;;;;;;5053376;28;20204;-66
2021/05/24 05:23:35;;;;;;;1.42;1.00;;;26.20;96.10;;;;;;5053265;28;20194;-67
2021/05/24 05:26:02;;;;;;;1.58;1.17;;;25.90;95.60;;;;;;5053035;28;20653;-66
2021/05/24 05:28:30;;;;;;;1.15;1.02;;;25.20;95.60;;;;;;5053245;28;20201;-66
2021/05/24 05:30:57;;;;;;;1.17;1.05;;;24.70;96.00;;;;;;5052202;28;20248;-66
2021/05/24 05:33:24;;;;;;;2.28;1.10;;;23.60;97.40;;;;;;5053279;28;20280;-66
2021/05/24 05:35:55;;;;;;;1.17;1.05;;;21.80;99.90;;;;;;5052653;28;20639;-66
2021/05/24 05:38:22;;;;;;;2.22;1.25;;;20.60;99.90;;;;;;5052993;28;20276;-66
2021/05/24 05:40:52;;;;;;;1.42;1.08;;;19.60;99.90;;;;;;5052831;28;20637;-66
2021/05/24 05:43:20;;;;;;;1.02;0.95;;;18.70;99.90;;;;;;5052997;28;20259;-67
2021/05/24 05:45:48;;;;;;;1.25;1.10;;;17.90;99.90;;;;;;5052543;28;20284;-66
2021/05/24 05:48:16;;;;;;;1.50;1.40;;;17.30;99.90;;;;;;5052753;28;20287;-66
2021/05/24 05:50:43;;;;;;;1.60;1.20;;;17.00;99.90;;;;;;5052386;28;20323;-66
2021/05/24 05:53:11;;;;;;;1.60;1.42;;;16.70;99.90;;;;;;5052854;28;20216;-66
2021/05/24 05:55:38;;;;;;;1.48;1.20;;;16.50;99.90;;;;;;5052609;28;20300;-67
2021/05/24 05:58:06;;;;;;;1.30;1.20;;;16.40;99.90;;;;;;5052921;28;20204;-65
2021/05/24 06:00:34;;;;;;;2.47;1.27;;;16.40;99.90;;;;;;5052454;28;20212;-65
2021/05/24 06:03:01;;;;;;;1.90;0.97;;;16.30;99.90;;;;;;5051377;28;20221;-67
2021/05/24 06:05:29;;;;;;;1.65;1.13;;;16.00;99.90;;;;;;5052541;28;20237;-66
2021/05/24 06:07:58;;;;;;;2.00;1.30;;;15.90;99.90;;;;;;5052737;28;20303;-66
2021/05/24 06:10:26;;;;;;;3.30;1.30;;;15.70;99.90;;;;;;5052346;28;20248;-66
2021/05/24 06:12:53;;;;;;;1.73;1.30;;;15.80;99.90;;;;;;5052655;28;20229;-66
2021/05/24 06:15:22;;;;;;;1.25;1.00;;;16.00;99.90;;;;;;5052155;28;20206;-66
2021/05/24 06:17:49;;;;;;;1.70;1.30;;;16.20;99.90;;;;;;5052285;28;20680;-65
2021/05/24 06:20:17;;;;;;;1.40;1.30;;;16.40;99.90;;;;;;5052535;28;20202;-66
2021/05/24 06:22:44;;;;;;;1.30;1.08;;;16.50;99.90;;;;;;5052634;28;20207;-66
2021/05/24 06:25:12;;;;;;;1.27;1.02;;;16.50;99.90;;;;;;5052599;28;20208;-65
2021/05/24 06:27:40;;;;;;;1.75;1.48;;;16.40;99.90;;;;;;5052615;28;20287;-66
2021/05/24 06:30:10;;;;;;;1.40;1.20;;;16.50;99.90;;;;;;5052089;28;20784;-66
2021/05/24 06:32:39;;;;;;;1.15;1.00;;;16.50;99.90;;;;;;5052241;28;20236;-65
2021/05/24 06:35:07;;;;;;;1.58;1.20;;;16.50;99.90;;;;;;5052249;28;20292;-65
2021/05/24 06:37:34;;;;;;;1.77;0.88;;;16.40;99.90;;;;;;5052533;28;20248;-67
2021/05/24 06:40:03;;;;;;;1.20;1.10;;;16.30;99.90;;;;;;5052546;28;20284;-66
2021/05/24 06:42:31;;;;;;;1.98;1.50;;;16.30;99.90;;;;;;5055343;28;20201;-66
2021/05/24 06:44:59;;;;;;;1.77;1.45;;;16.20;99.90;;;;;;5056109;28;20232;-66
2021/05/24 06:47:26;;;;;;;3.13;1.30;;;16.20;99.90;;;;;;5056138;28;20232;-66
2021/05/24 06:49:55;;;;;;;2.28;1.20;;;16.30;99.90;;;;;;5055823;28;20653;-67
2021/05/24 06:52:22;;;;;;;1.42;1.23;;;16.50;99.90;;;;;;5055999;28;20214;-66
2021/05/24 06:54:49;;;;;;;1.50;1.20;;;16.60;99.90;;;;;;5055519;28;20693;-64
2021/05/24 06:57:17;;;;;;;3.63;1.02;;;16.70;99.90;;;;;;5055668;28;20205;-65
2021/05/24 06:59:44;;;;;;;2.42;1.08;;;16.80;99.90;;;;;;5054870;28;20719;-66
2021/05/24 07:02:12;;;;;;;3.40;1.20;;;17.00;99.90;;;;;;5055888;28;20284;-66
2021/05/24 07:04:39;;;;;;;1.38;1.00;;;16.90;99.90;;;;;;5055708;28;20211;-60
2021/05/24 07:07:07;;;;;;;2.15;1.05;;;17.00;99.90;;;;;;5055843;28;20295;-59
2021/05/24 07:09:35;;;;;;;2.97;0.98;;;16.90;99.90;;;;;;5055509;28;20251;-60
2021/05/24 07:12:02;;;;;;;1.23;0.98;;;16.90;99.90;;;;;;5055667;28;20239;-60
2021/05/24 07:14:30;;;;;;;1.02;0.93;;;16.80;99.90;;;;;;5055663;28;20297;-59
2021/05/24 07:16:57;;;;;;;1.63;0.98;;;16.80;99.90;;;;;;5055636;28;20197;-59
2021/05/24 07:19:24;;;;;;;2.42;1.00;;;16.70;99.90;;;;;;5055660;28;20208;-60
2021/05/24 07:21:53;;;;;;;2.78;0.90;;;16.80;99.90;;;;;;5055712;28;20208;-60
2021/05/24 07:24:21;;;;;;;1.25;0.90;;;16.80;99.90;;;;;;5055533;28;20229;-60
2021/05/24 07:26:56;;;;;;;1.10;0.80;;;16.70;99.90;;;;;;5055270;28;20185;-60
2021/05/24 07:29:23;;;;;;;0.93;0.80;;;16.70;99.90;;;;;;5054095;28;20284;-59
2021/05/24 07:31:50;;;;;;;1.45;1.00;;;16.80;99.90;;;;;;5054924;28;20217;-60
2021/05/24 07:34:18;;;;;;;1.48;1.17;;;16.80;99.90;;;;;;5055176;28;20332;-60
2021/05/24 07:36:45;;;;;;;2.35;0.90;;;16.80;99.90;;;;;;5055332;28;20219;-60
2021/05/24 07:39:13;;;;;;;1.35;0.73;;;16.90;99.90;;;;;;5055350;28;20209;-60
2021/05/24 07:41:41;;;;;;;1.23;0.75;;;17.00;99.90;;;;;;5055085;28;20199;-60
2021/05/24 07:44:08;;;;;;;1.63;0.88;;;17.20;99.90;;;;;;5054971;28;20204;-58
2021/05/24 07:46:40;;;;;;;1.25;0.98;;;17.20;99.90;;;;;;5053842;28;20284;-59
2021/05/24 07:49:08;;;;;;;0.93;0.80;;;17.20;99.90;;;;;;5053231;28;20202;-59
2021/05/24 07:51:35;;;;;;;1.83;0.90;;;17.20;99.90;;;;;;5053751;28;20283;-60
2021/05/24 07:54:03;;;;;;;1.90;1.00;;;17.40;99.90;;;;;;5053623;28;20661;-60
2021/05/24 07:56:31;;;;;;;1.02;0.93;;;17.50;99.90;;;;;;5054957;28;20210;-60
2021/05/24 07:58:59;;;;;;;1.02;0.77;;;17.60;99.90;;;;;;5054834;28;20252;-60
2021/05/24 08:01:26;;;;;;;0.73;0.55;;;17.80;99.90;;;;;;5054689;28;20280;-60
2021/05/24 08:03:54;;;;;;;1.30;0.70;;;18.10;99.90;;;;;;5054749;28;20697;-60
2021/05/24 08:06:21;;;;;;;2.05;0.68;;;18.40;99.90;;;;;;5054640;28;20255;-59
2021/05/24 08:08:48;;;;;;;1.13;0.55;;;18.50;99.90;;;;;;5041893;28;20789;-62
2021/05/24 08:11:16;;;;;;;0.90;0.77;;;18.80;99.90;;;;;;5053921;28;20776;-62
2021/05/24 08:13:43;;;;;;;0.90;0.70;;;18.60;99.90;;;;;;5054188;28;20824;-62
2021/05/24 08:16:13;;;;;;;1.00;0.60;;;18.80;99.90;;;;;;5054079;28;20658;-61
2021/05/24 08:18:41;;;;;;;1.42;0.73;;;19.00;99.90;;;;;;5054223;28;20240;-61
2021/05/24 08:21:09;;;;;;;1.35;0.70;;;19.10;99.90;;;;;;5054145;28;20212;-62
2021/05/24 08:23:40;;;;;;;0.80;0.77;;;19.00;99.90;;;;;;5054336;28;20192;-60
2021/05/24 08:26:07;;;;;;;0.80;0.60;;;18.80;99.90;;;;;;5054090;28;20729;-61
2021/05/24 08:28:35;;;;;;;0.45;0.45;;;18.80;99.90;;;;;;5054416;28;20296;-61
2021/05/24 08:31:03;;;;;;;1.08;0.80;;;18.90;99.90;;;;;;5053616;28;20728;-60
2021/05/24 08:33:31;;;;;;;0.80;0.80;;;19.20;99.90;;;;;;5054142;28;20208;-60
2021/05/24 08:35:59;;;;;;;1.10;0.75;;;19.50;99.90;;;;;;5054001;28;20197;-60
2021/05/24 08:38:27;;;;;;;1.17;0.88;;;19.60;99.90;;;;;;5053824;28;20240;-59
2021/05/24 08:40:55;;;;;;;1.80;0.90;;;19.70;99.90;;;;;;5053921;28;20285;-59
2021/05/24 08:43:22;;;;;;;2.03;0.80;;;19.80;99.90;;;;;;5053977;28;20297;-59
2021/05/24 08:45:50;;;;;;;1.40;0.88;;;19.80;99.90;;;;;;5053369;28;20205;-60
2021/05/24 08:48:18;;;;;;;1.15;0.90;;;19.90;99.90;;;;;;5053824;28;20292;-58
2021/05/24 08:50:46;;;;;;;1.70;1.00;;;20.00;99.90;;;;;;5053162;28;20257;-59
2021/05/24 08:53:13;;;;;;;1.30;0.60;;;20.30;99.90;;;;;;5053282;28;20630;-59
2021/05/24 08:55:41;;;;;;;1.27;0.70;;;20.40;99.90;;;;;;5053542;28;20241;-60
2021/05/24 08:58:09;;;;;;;3.08;0.90;;;20.30;99.90;;;;;;5053607;28;20223;-59
2021/05/24 09:00:37;;;;;;;1.10;0.70;;;20.40;99.90;;;;;;5053472;28;20255;-60
2021/05/24 09:03:04;;;;;;;2.53;0.82;;;20.30;99.90;;;;;;5053193;28;20197;-59
2021/05/24 09:05:33;;;;;;;0.70;0.68;;;20.30;99.90;;;;;;5053057;28;20721;-59
2021/05/24 09:08:04;;;;;;;1.52;0.60;;;20.40;99.90;;;;;;5053494;28;20225;-60
2021/05/24 09:10:35;;;;;;;0.90;0.60;;;20.30;99.90;;;;;;5053465;28;20186;-60
2021/05/24 09:13:10;;;;;;;0.98;0.70;;;20.20;99.90;;;;;;5053337;28;20252;-59
2021/05/24 09:15:39;;;;;;;1.95;1.10;;;20.20;99.90;;;;;;5053185;28;20219;-59
2021/05/24 09:18:09;;;;;;;1.70;1.10;;;20.20;99.90;;;;;;5053428;28;20296;-60
2021/05/24 09:20:38;;;;;;;2.05;1.70;;;20.00;99.90;;;;;;5052991;28;20292;-60
2021/05/24 09:23:13;;;;;;;1.52;1.20;;;19.80;99.90;;;;;;5053248;28;20296;-60
2021/05/24 09:25:56;;;;;;;0.98;0.85;;;19.80;99.90;;;;;;5046198;28;20244;-60
2021/05/24 09:28:28;;;;;;;0.80;0.70;;;19.70;99.90;;;;;;5051818;28;20228;-60
2021/05/24 09:30:57;;;;;;;0.82;0.68;;;19.60;99.90;;;;;;5052391;28;20673;-60
2021/05/24 09:33:25;;;;;;;1.48;0.80;;;19.60;99.90;;;;;;5052997;28;20300;-59
2021/05/24 09:35:53;;;;;;;1.65;0.90;;;19.50;99.90;;;;;;5052788;28;20291;-60
2021/05/24 09:38:23;;;;;;;2.83;0.70;;;19.40;99.90;;;;;;5052748;28;20225;-59
2021/05/24 09:40:53;;;;;;;1.05;0.80;;;19.30;99.90;;;;;;5052824;28;20232;-59
2021/05/24 09:43:28;;;;;;;0.68;0.60;;;19.10;99.90;;;;;;5052721;28;20300;-59
2021/05/24 09:46:07;;;;;;;1.30;0.70;;;19.10;99.90;;;;;;5052622;28;20216;-59
2021/05/24 09:48:35;;;;;;;1.13;0.70;;;19.00;99.90;;;;;;5052765;28;20182;-60
2021/05/24 09:51:07;;;;;;;0.90;0.60;;;19.10;99.90;;;;;;5051934;28;20233;-59
2021/05/24 09:53:36;;;;;;;0.77;0.60;;;19.10;99.90;;;;;;5052664;28;20280;-60
2021/05/24 09:56:09;;;;;;;1.67;0.73;;;18.90;99.90;;;;;;5052169;28;20221;-60
2021/05/24 09:58:37;;;;;;;1.52;0.70;;;18.90;99.90;;;;;;5052511;28;20251;-61
2021/05/24 10:01:17;;;;;;;0.60;0.43;;;18.90;99.90;;;;;;5052487;28;20289;-61
2021/05/24 10:03:46;;;;;;;2.20;0.95;;;18.90;99.90;;;;;;5052225;28;20198;-58
2021/05/24 10:06:15;;;;;;;0.95;0.60;;;18.90;99.90;;;;;;5051871;28;20553;-59
2021/05/24 10:08:43;;;;;;;0.98;0.63;;;19.00;99.90;;;;;;5052494;28;20205;-60
2021/05/24 10:11:11;;;;;;;1.77;1.10;;;18.90;99.90;;;;;;5052169;28;20699;-59
2021/05/24 10:13:39;;;;;;;0.65;0.65;;;19.00;99.90;;;;;;5052368;28;20251;-59
2021/05/24 10:16:11;;;;;;;1.77;0.70;;;19.10;99.90;;;;;;5047901;28;20197;-60
2021/05/24 10:18:39;;;;;;;0.95;0.75;;;19.20;99.90;;;;;;5052323;28;20296;-59
2021/05/24 10:21:07;;;;;;;1.27;0.70;;;19.40;99.90;;;;;;5052189;28;20233;-59
2021/05/24 10:23:35;;;;;;;0.82;0.50;;;19.30;99.90;;;;;;5052292;28;20664;-59
2021/05/24 10:26:08;;;;;;;1.77;0.60;;;19.30;99.90;;;;;;5052109;28;20233;-59
2021/05/24 10:28:38;;;;;;;0.75;0.65;;;19.20;99.90;;;;;;5051987;28;20190;-59
2021/05/24 10:31:17;;;;;;;1.45;0.60;;;19.30;99.90;;;;;;5051587;28;20247;-59
2021/05/24 10:33:45;;;;;;;4.95;0.80;;;19.30;99.90;;;;;;5051779;28;20272;-59
2021/05/24 10:36:19;;;;;;;1.30;0.50;;;19.40;99.90;;;;;;5051544;28;20243;-59
2021/05/24 10:39:12;;;;;;;0.70;0.70;;;19.50;99.90;;;;;;5051847;28;20268;-59
2021/05/24 10:41:49;;;;;;;0.43;0.40;;;19.60;99.90;;;;;;5051971;28;20217;-59
2021/05/24 10:44:17;;;;;;;1.33;0.80;;;19.70;99.90;;;;;;5051666;28;20247;-60
2021/05/24 10:46:45;;;;;;;1.20;0.77;;;19.70;99.90;;;;;;5051440;28;20304;-59
2021/05/24 10:49:25;;;;;;;1.40;0.70;;;19.70;99.90;;;;;;5052106;28;20211;-59
2021/05/24 10:51:59;;;;;;;1.75;0.80;;;19.60;99.90;;;;;;5051629;28;20231;-60
2021/05/24 10:54:36;;;;;;;0.68;0.60;;;19.60;99.90;;;;;;5051779;28;20181;-59
2021/05/24 10:57:14;;;;;;;2.67;0.98;;;19.70;99.90;;;;;;5051872;28;20276;-59
2021/05/24 10:59:53;;;;;;;3.90;0.75;;;19.70;99.90;;;;;;5051309;28;20273;-59
2021/05/24 11:02:31;;;;;;;0.70;0.68;;;19.70;99.90;;;;;;5051358;28;20192;-58
2021/05/24 11:05:01;;;;;;;1.10;0.52;;;19.70;99.90;;;;;;5051718;28;20217;-59
2021/05/24 11:07:32;;;;;;;1.33;0.70;;;19.80;99.90;;;;;;5051836;28;20579;-59
2021/05/24 11:10:22;;;;;;;1.05;0.63;;;19.80;99.90;;;;;;5051702;28;20272;-59
2021/05/24 11:12:52;;;;;;;1.63;0.70;;;19.80;99.90;;;;;;5051399;28;20212;-59
2021/05/24 11:15:20;;;;;;;2.20;0.85;;;19.90;99.90;;;;;;5051117;28;20216;-59
2021/05/24 11:18:12;;;;;;;0.60;0.52;;;19.80;99.90;;;;;;5051885;28;20190;-60
2021/05/24 11:20:44;;;;;;;1.92;0.73;;;19.90;99.90;;;;;;5051384;28;20665;-59
2021/05/24 11:23:22;;;;;;;1.73;0.52;;;20.00;99.90;;;;;;5037515;28;20609;-60
2021/05/24 11:25:51;;;;;;;1.00;0.57;;;20.00;99.90;;;;;;5031876;28;20293;-59
2021/05/24 11:28:22;;;;;;;0.47;0.47;;;20.10;99.90;;;;;;5032364;28;20245;-59
2021/05/24 11:31:10;;;;;;;1.02;0.60;;;20.10;99.90;;;;;;5035303;28;20383;-59
2021/05/24 11:33:40;;;;;;;1.50;0.63;;;20.10;99.90;;;;;;5034974;28;20587;-58
2021/05/24 11:36:10;;;;;;;0.57;0.57;;;20.10;99.90;;;;;;5034930;28;20633;-59
2021/05/24 11:38:38;;;;;;;0.65;0.45;;;20.10;99.90;;;;;;5034967;28;20194;-61
2021/05/24 11:41:13;;;;;;;0.85;0.60;;;20.20;99.90;;;;;;5035090;28;20214;-58
2021/05/24 11:43:43;;;;;;;0.60;0.57;;;20.30;99.90;;;;;;5034505;28;20686;-60
2021/05/24 11:46:13;;;;;;;1.52;0.70;;;20.30;99.90;;;;;;5052210;28;20677;-60
2021/05/24 11:48:43;;;;;;;0.90;0.70;;;20.40;99.90;;;;;;5054805;28;20288;-60
2021/05/24 11:51:14;;;;;;;0.50;0.50;;;20.50;99.90;;;;;;5054490;28;20257;-60
2021/05/24 11:54:00;;;;;;;1.13;0.60;;;20.70;99.90;;;;;;5054559;28;20205;-61
2021/05/24 11:56:40;;;;;;;1.25;0.50;;;20.80;99.90;;;;;;5054784;28;20273;-61
2021/05/24 11:59:11;;;;;;;0.60;0.60;;;20.80;99.90;;;;;;5054640;28;20611;-60
2021/05/24 12:01:42;;;;;;;0.90;0.70;;;21.00;99.90;;;;;;5054660;28;20186;-61
2021/05/24 12:04:12;;;;;;;0.70;0.70;;;21.30;99.90;;;;;;5054614;28;20262;-59
2021/05/24 12:06:42;;;;;;;1.67;0.50;;;21.50;99.90;;;;;;5053764;28;20635;-60
2021/05/24 12:09:09;;;;;;;0.77;0.30;;;21.70;99.80;;;;;;5051594;28;20285;-58
2021/05/24 12:11:53;;;;;;;1.05;0.60;;;21.80;99.90;;;;;;5054100;28;20236;-59
2021/05/24 12:14:22;;;;;;;0.73;0.52;;;21.90;99.10;;;;;;5054267;28;20577;-60
2021/05/24 12:16:49;;;;;;;0.57;0.57;;;21.80;99.90;;;;;;5054289;28;20385;-59
2021/05/24 12:19:21;;;;;;;1.25;0.50;;;21.90;98.70;;;;;;5054721;28;20236;-59
2021/05/24 12:21:49;;;;;;;0.60;0.50;;;21.90;99.40;;;;;;5054098;28;20280;-58
2021/05/24 12:24:18;;;;;;;0.55;0.55;;;21.90;99.30;;;;;;5054432;28;20224;-59
2021/05/24 12:26:49;;;;;;;0.52;0.52;;;21.80;99.90;;;;;;5054503;28;20208;-60
2021/05/24 12:29:26;;;;;;;1.80;0.63;;;21.80;99.90;;;;;;5054531;28;20269;-60
2021/05/24 12:32:00;;;;;;;0.80;0.60;;;21.80;99.50;;;;;;5054132;28;20271;-60
2021/05/24 12:34:40;;;;;;;1.77;0.60;;;21.70;99.90;;;;;;5054064;28;20299;-59
2021/05/24 12:37:12;;;;;;;1.80;0.63;;;21.80;99.90;;;;;;5051835;28;20328;-61
2021/05/24 12:39:44;;;;;;;0.50;0.40;;;21.80;99.30;;;;;;5052710;28;20213;-60
2021/05/24 12:42:13;;;;;;;0.50;0.43;;;21.70;99.10;;;;;;5053143;28;20281;-59
2021/05/24 12:44:41;;;;;;;2.05;0.50;;;21.60;98.80;;;;;;5053740;28;20301;-59
2021/05/24 12:47:16;;;;;;;0.77;0.45;;;21.60;99.90;;;;;;5053617;28;20240;-61
2021/05/24 12:49:46;;;;;;;0.40;0.40;;;21.60;99.90;;;;;;5053442;28;20236;-60
2021/05/24 12:52:14;;;;;;;1.27;0.70;;;21.70;98.20;;;;;;5053326;28;20701;-59
2021/05/24 12:54:43;;;;;;;0.50;0.43;;;21.80;98.50;;;;;;5053527;28;20251;-59
2021/05/24 12:57:11;;;;;;;0.40;0.40;;;22.00;98.60;;;;;;5052992;28;20289;-59